EEKA

Details ICAO EEKA (KDL)
Name KARDLA
Region Estonia
Timezone Europe/Tallinn (UTC+2.0)
Plans Departing 16
Arriving 16
Stats Elevation 18 ft / 5 m (AMSL)
Location 58.990800° 22.830900°
Runways 1
Magnetic Variation 7.950° E
Sunrise 2018-12-19 07:21:19 UTC / 2018-12-19 09:21:19 Local
Sunset 2018-12-19 13:32:36 UTC / 2018-12-19 15:32:36 Local
Advertisement - Login to hide

Runways

ID Width Length Bearing (true/mag) Surface Threshold Overrun Markings Lighting
14 98 ft / 30 m 4,986 ft / 1,520 m 147.38° / 139.43° ASPHALT 0 ft / 0 m 0 ft / 0 m PREC-APP EDGE THRESHOLD
32 98 ft / 30 m 4,986 ft / 1,520 m 327.39° / 319.44° ASPHALT 787 ft / 240 m 0 ft / 0 m PREC-APP EDGE THRESHOLD ALSF-I

Map

Weather


0- 5 10 15 20 25 30 35+ Temperature / °C

Clouds and Precipitation
Forecast for 2018-12-19 06:00 UTC. Updated 5 hours ago

Ground ~20,000 ft ~40,000 ft Winds

METAR

EEKA 190750Z 14006KT 6000 -SN BKN006 M01/M01 Q1029

TAF

Not found

Frequencies

Tower 130.30 MHz AFIS
Warning: Do not use this data for real-world aviation or navigation. No guarantee of current accuracy is given.